createdAt,value
2017-10-02T00:00:41.866Z,15.88
2017-10-02T00:02:43.280Z,15.88
2017-10-02T00:04:44.697Z,15.92
2017-10-02T00:06:46.123Z,15.97
2017-10-02T00:08:47.538Z,15.88
2017-10-02T00:10:48.960Z,15.96
2017-10-02T00:12:50.382Z,15.93
2017-10-02T00:14:51.799Z,15.89
2017-10-02T00:16:53.230Z,15.96
2017-10-02T00:18:54.662Z,15.93
2017-10-02T00:20:56.197Z,15.93
2017-10-02T00:22:58.085Z,15.88
2017-10-02T00:24:59.552Z,15.97
2017-10-02T00:27:01.063Z,15.93
2017-10-02T00:29:02.507Z,15.92
2017-10-02T00:31:03.982Z,15.88
2017-10-02T00:33:05.441Z,15.86
2017-10-02T00:35:06.963Z,15.88
2017-10-02T00:37:08.486Z,15.89
2017-10-02T00:39:09.961Z,15.89
2017-10-02T00:41:11.411Z,15.79
2017-10-02T00:43:12.901Z,15.81
2017-10-02T00:45:14.391Z,15.78
2017-10-02T00:47:15.850Z,15.81
2017-10-02T00:49:17.357Z,15.70
2017-10-02T00:51:18.880Z,15.75
2017-10-02T00:53:20.380Z,15.72
2017-10-02T00:55:21.854Z,15.78
2017-10-02T00:57:23.318Z,15.76
2017-10-02T00:59:24.751Z,15.74
2017-10-02T01:01:26.288Z,15.74
2017-10-02T01:03:27.763Z,15.66
2017-10-02T01:05:29.408Z,15.72
2017-10-02T01:07:30.954Z,15.67
2017-10-02T01:09:32.368Z,15.67
2017-10-02T01:11:33.785Z,15.67
2017-10-02T01:13:35.209Z,15.70
2017-10-02T01:15:36.628Z,15.56
2017-10-02T01:17:38.046Z,15.51
2017-10-02T01:19:39.459Z,15.51
2017-10-02T01:21:40.966Z,15.63
2017-10-02T01:24:23.352Z,15.56
2017-10-02T01:26:24.769Z,15.42
2017-10-02T01:28:26.181Z,15.28
2017-10-02T01:30:27.761Z,15.35
2017-10-02T01:32:29.170Z,15.42
2017-10-02T01:34:30.586Z,15.45
2017-10-02T01:36:32.019Z,15.31
2017-10-02T01:38:33.457Z,15.35
2017-10-02T01:40:34.952Z,15.21
2017-10-02T01:42:36.362Z,15.06
2017-10-02T01:44:37.791Z,15.01
2017-10-02T01:46:39.206Z,14.95
2017-10-02T01:48:40.625Z,14.74
2017-10-02T01:50:42.043Z,14.72
2017-10-02T01:52:43.456Z,14.65
2017-10-02T01:55:25.862Z,14.67
2017-10-02T01:57:27.491Z,14.64
2017-10-02T01:59:28.893Z,14.65
2017-10-02T02:01:30.307Z,14.56
2017-10-02T02:03:31.719Z,14.57
2017-10-02T02:05:33.134Z,14.65
2017-10-02T02:07:34.562Z,14.65
2017-10-02T02:09:35.979Z,14.60
2017-10-02T02:11:37.397Z,14.61
2017-10-02T02:13:38.908Z,14.62
2017-10-02T02:15:40.350Z,14.61
2017-10-02T02:17:41.788Z,14.71
2017-10-02T02:19:43.203Z,14.74
2017-10-02T02:21:44.691Z,14.71
2017-10-02T02:23:46.250Z,14.65
2017-10-02T02:25:47.916Z,14.75
2017-10-02T02:27:49.334Z,14.80
2017-10-02T02:29:50.819Z,14.81
2017-10-02T02:31:52.306Z,14.83
2017-10-02T02:33:53.785Z,14.91
2017-10-02T02:35:55.293Z,14.90
2017-10-02T02:37:56.846Z,14.87
2017-10-02T02:39:58.321Z,14.87
2017-10-02T02:41:59.882Z,14.99
2017-10-02T02:44:01.398Z,14.86
2017-10-02T02:46:02.908Z,14.93
2017-10-02T02:48:04.385Z,14.93
2017-10-02T02:50:05.851Z,14.90
2017-10-02T02:52:07.373Z,14.87
2017-10-02T02:54:08.919Z,14.75
2017-10-02T02:56:10.343Z,14.74
2017-10-02T02:58:11.772Z,14.72
2017-10-02T03:00:13.332Z,14.68
2017-10-02T03:02:14.740Z,14.67
2017-10-02T03:04:16.152Z,14.71
2017-10-02T03:06:17.564Z,14.78
2017-10-02T03:08:18.990Z,14.71
2017-10-02T03:10:20.424Z,14.68
2017-10-02T03:12:21.928Z,14.72
2017-10-02T03:14:23.424Z,14.69
2017-10-02T03:16:24.898Z,14.72
2017-10-02T03:18:26.462Z,14.71
2017-10-02T03:20:27.916Z,14.71
2017-10-02T03:22:29.344Z,14.74
2017-10-02T03:24:30.789Z,14.68
2017-10-02T03:26:32.199Z,14.69
2017-10-02T03:28:33.621Z,14.75
2017-10-02T03:30:35.088Z,14.74
2017-10-02T03:32:36.516Z,14.72
2017-10-02T03:34:37.930Z,14.78
2017-10-02T03:36:39.346Z,14.86
2017-10-02T03:38:40.773Z,14.87
2017-10-02T03:40:42.197Z,14.88
2017-10-02T03:42:43.602Z,14.95
2017-10-02T03:44:45.024Z,14.86
2017-10-02T03:46:46.439Z,14.81
2017-10-02T03:48:47.858Z,14.68
2017-10-02T03:50:49.278Z,14.69
2017-10-02T03:52:50.779Z,14.68
2017-10-02T03:54:52.207Z,14.68
2017-10-02T03:56:53.633Z,14.67
2017-10-02T03:58:55.060Z,14.56
2017-10-02T04:00:56.479Z,14.38
2017-10-02T04:02:57.896Z,14.43
2017-10-02T04:04:59.311Z,14.37
2017-10-02T04:07:00.729Z,14.39
2017-10-02T04:09:02.151Z,14.42
2017-10-02T04:11:03.571Z,14.37
2017-10-02T04:13:04.980Z,14.42
2017-10-02T04:15:06.409Z,14.43
2017-10-02T04:17:07.879Z,14.31
2017-10-02T04:19:09.398Z,14.31
2017-10-02T04:21:11.021Z,14.32
2017-10-02T04:23:12.444Z,14.31
2017-10-02T04:25:13.890Z,14.31
2017-10-02T04:27:15.341Z,14.24
2017-10-02T04:29:16.768Z,14.32
2017-10-02T04:31:18.182Z,14.31
2017-10-02T04:34:00.894Z,14.42
2017-10-02T04:36:02.573Z,14.31
2017-10-02T04:38:04.026Z,14.32
2017-10-02T04:40:05.443Z,14.29
2017-10-02T04:42:06.858Z,14.38
2017-10-02T04:44:08.273Z,14.44
2017-10-02T04:46:09.693Z,14.39
2017-10-02T04:48:11.118Z,14.46
2017-10-02T04:50:12.561Z,14.39
2017-10-02T04:52:14.054Z,14.43
2017-10-02T04:54:15.513Z,14.47
2017-10-02T04:56:16.931Z,14.43
2017-10-02T04:58:18.352Z,14.43
2017-10-02T05:00:19.772Z,14.44
2017-10-02T05:02:21.192Z,14.44
2017-10-02T05:04:22.608Z,14.39
2017-10-02T05:06:24.075Z,14.44
2017-10-02T05:08:25.518Z,14.46
2017-10-02T05:10:26.973Z,14.46
2017-10-02T05:12:28.392Z,14.53
2017-10-02T05:14:30.078Z,14.52
2017-10-02T05:16:31.511Z,14.52
2017-10-02T05:18:32.937Z,14.52
2017-10-02T05:20:34.362Z,14.56
2017-10-02T05:22:35.903Z,14.60
2017-10-02T05:24:37.335Z,14.50
2017-10-02T05:26:38.806Z,14.50
2017-10-02T05:28:40.291Z,14.54
2017-10-02T05:30:41.691Z,14.57
2017-10-02T05:32:43.215Z,14.53
2017-10-02T05:34:44.680Z,14.49
2017-10-02T05:36:46.122Z,14.60
2017-10-02T05:38:47.576Z,14.50
2017-10-02T05:40:49.065Z,14.67
2017-10-02T05:42:50.540Z,14.68
2017-10-02T05:44:52.083Z,14.67
2017-10-02T05:46:53.585Z,14.71
2017-10-02T05:48:55.111Z,14.62
2017-10-02T05:50:56.669Z,14.69
2017-10-02T05:52:58.153Z,14.74
2017-10-02T05:54:59.616Z,14.84
2017-10-02T05:57:01.117Z,14.81
2017-10-02T05:59:02.658Z,14.67
2017-10-02T06:01:04.172Z,14.74
2017-10-02T06:03:05.658Z,14.81
2017-10-02T06:05:07.121Z,14.88
2017-10-02T06:07:08.638Z,14.91
2017-10-02T06:09:10.166Z,14.91
2017-10-02T06:11:11.736Z,14.87
2017-10-02T06:13:13.295Z,14.94
2017-10-02T06:15:14.854Z,14.98
2017-10-02T06:17:16.307Z,15.03
2017-10-02T06:19:17.801Z,15.08
2017-10-02T06:21:19.309Z,15.02
2017-10-02T06:23:20.769Z,15.06
2017-10-02T06:25:22.263Z,15.05
2017-10-02T06:27:23.808Z,15.03
2017-10-02T06:29:25.282Z,15.11
2017-10-02T06:31:26.793Z,15.17
2017-10-02T06:33:28.212Z,15.17
2017-10-02T06:35:29.676Z,15.23
2017-10-02T06:37:31.177Z,15.19
2017-10-02T06:39:33.029Z,15.21
2017-10-02T06:41:34.864Z,15.21
2017-10-02T06:43:36.787Z,15.24
2017-10-02T06:45:38.286Z,15.33
2017-10-02T06:47:39.775Z,15.31
2017-10-02T06:49:41.279Z,15.28
2017-10-02T06:51:42.732Z,15.42
2017-10-02T06:53:44.240Z,15.35
2017-10-02T06:55:45.703Z,15.38
2017-10-02T06:57:47.123Z,15.46
2017-10-02T06:59:48.559Z,15.49
2017-10-02T07:01:50.013Z,15.52
2017-10-02T07:03:51.411Z,15.45
2017-10-02T07:05:52.844Z,15.46
2017-10-02T07:07:54.248Z,15.56
2017-10-02T07:09:55.678Z,15.54
2017-10-02T07:11:57.107Z,15.60
2017-10-02T07:13:58.563Z,15.60
2017-10-02T07:15:59.978Z,15.59
2017-10-02T07:18:01.420Z,15.61
2017-10-02T07:20:02.831Z,15.66
2017-10-02T07:22:04.250Z,15.59
2017-10-02T07:24:05.669Z,15.49
2017-10-02T07:26:07.089Z,15.68
2017-10-02T07:28:49.565Z,15.67
2017-10-02T07:30:50.979Z,15.61
2017-10-02T07:32:52.401Z,15.72
2017-10-02T07:34:54.042Z,15.74
2017-10-02T07:36:55.472Z,15.64
2017-10-02T07:38:56.923Z,15.68
2017-10-02T07:40:58.349Z,15.79
2017-10-02T07:42:59.761Z,15.78
2017-10-02T07:45:01.190Z,15.84
2017-10-02T07:47:02.601Z,15.85
2017-10-02T07:49:04.178Z,15.88
2017-10-02T07:51:05.621Z,15.99
2017-10-02T07:53:07.045Z,15.88
2017-10-02T07:55:08.622Z,15.94
2017-10-02T07:57:10.081Z,16.06
2017-10-02T07:59:11.501Z,16.01
2017-10-02T08:01:12.943Z,16.11
2017-10-02T08:03:14.362Z,16.07
2017-10-02T08:05:15.784Z,16.18
2017-10-02T08:07:17.222Z,16.23
2017-10-02T08:09:18.674Z,16.18
2017-10-02T08:11:20.359Z,16.15
2017-10-02T08:13:21.778Z,16.35
2017-10-02T08:15:23.250Z,16.33
2017-10-02T08:17:24.716Z,16.48
2017-10-02T08:19:26.169Z,16.48
2017-10-02T08:21:27.646Z,16.42
2017-10-02T08:23:29.133Z,16.45
2017-10-02T08:25:30.611Z,16.45
2017-10-02T08:27:32.126Z,16.49
2017-10-02T08:29:33.585Z,16.48
2017-10-02T08:31:35.085Z,16.53
2017-10-02T08:33:36.745Z,16.60
2017-10-02T08:35:38.239Z,16.67
2017-10-02T08:37:39.720Z,16.67
2017-10-02T08:39:41.192Z,16.73
2017-10-02T08:41:42.643Z,16.70
2017-10-02T08:43:44.073Z,16.67
2017-10-02T08:45:45.552Z,16.65
2017-10-02T08:47:47.034Z,16.60
2017-10-02T08:49:48.519Z,16.58
2017-10-02T08:51:50.005Z,16.77
2017-10-02T08:53:51.468Z,16.80
2017-10-02T08:55:53.010Z,16.85
2017-10-02T08:57:54.485Z,16.90
2017-10-02T08:59:55.985Z,16.88
2017-10-02T09:01:57.560Z,16.90
2017-10-02T09:04:40.100Z,16.77
2017-10-02T09:06:41.523Z,16.83
2017-10-02T09:08:42.954Z,16.78
2017-10-02T09:10:44.375Z,16.89
2017-10-02T09:12:45.788Z,17.10
2017-10-02T09:14:47.208Z,17.13
2017-10-02T09:16:48.643Z,17.28
2017-10-02T09:18:50.078Z,17.41
2017-10-02T09:20:51.504Z,17.48
2017-10-02T09:22:52.929Z,17.51
2017-10-02T09:24:54.352Z,17.71
2017-10-02T09:26:55.785Z,17.91
2017-10-02T09:28:57.259Z,17.99
2017-10-02T09:30:58.679Z,17.97
2017-10-02T09:33:00.155Z,18.00
2017-10-02T09:35:01.580Z,18.00
2017-10-02T09:37:03.012Z,17.95
2017-10-02T09:39:04.443Z,18.02
2017-10-02T09:41:05.920Z,17.95
2017-10-02T09:43:07.394Z,18.00
2017-10-02T09:45:08.887Z,18.06
2017-10-02T09:47:10.421Z,17.97
2017-10-02T09:49:11.874Z,18.09
2017-10-02T09:51:13.299Z,18.13
2017-10-02T09:53:14.733Z,18.07
2017-10-02T09:55:16.157Z,18.07
2017-10-02T09:57:17.585Z,18.15
2017-10-02T09:59:18.998Z,18.24
2017-10-02T10:01:20.442Z,18.22
2017-10-02T10:03:21.867Z,18.18
2017-10-02T10:05:23.286Z,18.00
2017-10-02T10:07:24.722Z,18.02
2017-10-02T10:09:26.194Z,18.03
2017-10-02T10:11:27.711Z,18.10
2017-10-02T10:13:29.186Z,18.13
2017-10-02T10:15:30.646Z,18.34
2017-10-02T10:17:32.150Z,18.37
2017-10-02T10:19:33.672Z,18.34
2017-10-02T10:21:35.217Z,18.36
2017-10-02T10:23:36.749Z,18.50
2017-10-02T10:25:38.232Z,18.67
2017-10-02T10:27:39.721Z,19.01
2017-10-02T10:29:41.214Z,19.18
2017-10-02T10:31:42.719Z,19.21
2017-10-02T10:33:44.210Z,19.25
2017-10-02T10:35:45.669Z,19.21
2017-10-02T10:37:47.171Z,19.02
2017-10-02T10:39:48.651Z,18.92
2017-10-02T10:41:50.126Z,18.83
2017-10-02T10:43:51.624Z,19.15
2017-10-02T10:45:53.066Z,19.32
2017-10-02T10:47:54.488Z,19.20
2017-10-02T10:49:55.917Z,19.23
2017-10-02T10:51:57.341Z,19.02
2017-10-02T10:54:39.761Z,18.97
2017-10-02T10:56:41.193Z,19.05
2017-10-02T10:58:42.624Z,19.33
2017-10-02T11:00:44.062Z,19.63
2017-10-02T11:02:45.491Z,19.97
2017-10-02T11:04:46.917Z,20.21
2017-10-02T11:06:48.346Z,20.23
2017-10-02T11:08:49.807Z,20.09
2017-10-02T11:10:51.386Z,19.84
2017-10-02T11:12:52.818Z,19.63
2017-10-02T11:14:54.248Z,19.36
2017-10-02T11:16:55.671Z,19.23
2017-10-02T11:18:57.111Z,19.36
2017-10-02T11:20:58.537Z,19.39
2017-10-02T11:22:59.967Z,19.48
2017-10-02T11:25:01.391Z,19.78
2017-10-02T11:27:02.826Z,20.12
2017-10-02T11:29:04.257Z,20.49
2017-10-02T11:31:05.688Z,20.41
2017-10-02T11:33:07.115Z,20.39
2017-10-02T11:35:08.545Z,20.33
2017-10-02T11:37:09.966Z,20.47
2017-10-02T11:39:11.404Z,20.41
2017-10-02T11:41:12.830Z,20.47
2017-10-02T11:43:14.252Z,20.49
2017-10-02T11:45:15.685Z,20.49
2017-10-02T11:47:17.129Z,20.24
2017-10-02T11:49:18.557Z,20.00
2017-10-02T11:51:19.987Z,20.12
2017-10-02T11:53:21.412Z,20.28
2017-10-02T11:55:22.839Z,20.24
2017-10-02T11:57:24.274Z,20.02
2017-10-02T11:59:25.693Z,19.98
2017-10-02T12:01:27.134Z,20.31
2017-10-02T12:03:28.562Z,20.28
2017-10-02T12:05:29.995Z,20.24
2017-10-02T12:07:31.416Z,20.12
2017-10-02T12:09:32.852Z,20.05
2017-10-02T12:11:34.280Z,19.88
2017-10-02T12:13:35.714Z,19.61
2017-10-02T12:15:37.153Z,19.60
2017-10-02T12:17:38.576Z,19.66
2017-10-02T12:19:40.053Z,19.70
2017-10-02T12:21:41.491Z,19.68
2017-10-02T12:23:42.913Z,19.69
2017-10-02T12:25:44.342Z,19.68
2017-10-02T12:27:45.769Z,19.83
2017-10-02T12:29:47.201Z,19.87
2017-10-02T12:31:48.625Z,19.87
2017-10-02T12:33:50.056Z,19.83
2017-10-02T12:35:51.481Z,19.65
2017-10-02T12:37:52.917Z,19.69
2017-10-02T12:39:54.338Z,19.50
2017-10-02T12:41:55.768Z,19.39
2017-10-02T12:43:57.193Z,19.35
2017-10-02T12:45:58.625Z,19.32
2017-10-02T12:48:00.048Z,19.46
2017-10-02T12:50:01.485Z,19.40
2017-10-02T12:52:02.903Z,19.46
2017-10-02T12:54:04.329Z,19.55
2017-10-02T12:56:05.755Z,19.58
2017-10-02T12:58:07.182Z,19.83
2017-10-02T13:00:08.610Z,19.98
2017-10-02T13:02:10.033Z,19.97
2017-10-02T13:04:11.464Z,19.84
2017-10-02T13:06:12.891Z,19.75
2017-10-02T13:08:14.323Z,19.54
2017-10-02T13:10:15.749Z,19.51
2017-10-02T13:12:17.181Z,19.54
2017-10-02T13:14:18.602Z,19.38
2017-10-02T13:16:20.027Z,19.31
2017-10-02T13:18:21.455Z,19.15
2017-10-02T13:20:22.888Z,19.17
2017-10-02T13:22:24.305Z,19.31
2017-10-02T13:24:25.733Z,19.32
2017-10-02T13:26:27.163Z,19.33
2017-10-02T13:28:28.594Z,19.36
2017-10-02T13:30:30.017Z,19.29
2017-10-02T13:32:31.452Z,19.20
2017-10-02T13:34:32.884Z,19.46
2017-10-02T13:36:34.332Z,19.57
2017-10-02T13:38:35.754Z,19.58
2017-10-02T13:40:37.194Z,19.48
2017-10-02T13:42:38.616Z,19.51
2017-10-02T13:44:40.047Z,19.66
2017-10-02T13:46:41.571Z,19.91
2017-10-02T13:48:43.017Z,20.00
2017-10-02T13:50:44.442Z,19.97
2017-10-02T13:52:45.909Z,19.87
2017-10-02T13:54:47.342Z,19.83
2017-10-02T13:56:48.777Z,19.73
2017-10-02T13:58:50.246Z,19.66
2017-10-02T14:00:51.705Z,19.61
2017-10-02T14:02:53.120Z,19.43
2017-10-02T14:04:54.544Z,19.55
2017-10-02T14:06:55.971Z,19.57
2017-10-02T14:08:57.398Z,19.50
2017-10-02T14:10:58.823Z,19.33
2017-10-02T14:13:00.252Z,19.39
2017-10-02T14:15:01.689Z,19.35
2017-10-02T14:17:03.371Z,19.36
2017-10-02T14:19:04.831Z,19.43
2017-10-02T14:21:06.270Z,19.36
2017-10-02T14:23:07.697Z,19.31
2017-10-02T14:25:09.125Z,19.28
2017-10-02T14:27:10.558Z,19.24
2017-10-02T14:29:12.068Z,19.20
2017-10-02T14:31:13.498Z,19.25
2017-10-02T14:33:14.998Z,19.20
2017-10-02T14:35:16.514Z,19.14
2017-10-02T14:37:17.912Z,19.14
2017-10-02T14:39:19.357Z,19.28
2017-10-02T14:41:20.778Z,19.17
2017-10-02T14:43:22.205Z,19.06
2017-10-02T14:45:23.631Z,18.97
2017-10-02T14:47:25.054Z,18.95
2017-10-02T14:49:26.486Z,18.79
2017-10-02T14:52:08.915Z,18.77
2017-10-02T14:54:10.339Z,18.77
2017-10-02T14:56:11.762Z,18.68
2017-10-02T14:58:13.185Z,18.73
2017-10-02T15:00:14.618Z,18.70
2017-10-02T15:02:16.040Z,18.86
2017-10-02T15:04:17.467Z,18.92
2017-10-02T15:06:18.894Z,18.90
2017-10-02T15:08:20.382Z,18.79
2017-10-02T15:10:21.939Z,18.94
2017-10-02T15:12:23.367Z,18.91
2017-10-02T15:14:24.796Z,18.84
2017-10-02T15:16:26.219Z,18.79
2017-10-02T15:18:27.646Z,18.80
2017-10-02T15:20:29.070Z,18.83
2017-10-02T15:22:30.500Z,18.70
2017-10-02T15:24:31.930Z,18.79
2017-10-02T15:26:33.421Z,18.68
2017-10-02T15:28:34.913Z,18.73
2017-10-02T15:30:36.426Z,18.59
2017-10-02T15:32:37.839Z,18.42
2017-10-02T15:34:39.287Z,18.40
2017-10-02T15:36:40.711Z,18.31
2017-10-02T15:38:42.129Z,18.29
2017-10-02T15:40:43.558Z,18.18
2017-10-02T15:42:44.978Z,18.03
2017-10-02T15:44:46.422Z,18.09
2017-10-02T15:46:47.849Z,18.10
2017-10-02T15:48:49.270Z,18.03
2017-10-02T15:50:50.704Z,18.09
2017-10-02T15:52:52.144Z,18.07
2017-10-02T15:54:53.577Z,18.02
2017-10-02T15:56:54.995Z,18.04
2017-10-02T15:58:56.416Z,18.02
2017-10-02T16:00:57.843Z,17.92
2017-10-02T16:02:59.271Z,17.91
2017-10-02T16:05:00.757Z,17.94
2017-10-02T16:07:02.275Z,17.84
2017-10-02T16:09:03.744Z,17.70
2017-10-02T16:11:45.157Z,17.76
2017-10-02T16:13:46.582Z,17.76
2017-10-02T16:15:48.003Z,17.81
2017-10-02T16:17:49.428Z,17.91
2017-10-02T16:19:50.845Z,17.89
2017-10-02T16:21:52.275Z,17.78
2017-10-02T16:23:53.702Z,17.78
2017-10-02T16:26:36.094Z,17.74
2017-10-02T16:28:37.518Z,17.55
2017-10-02T16:30:39.231Z,17.69
2017-10-02T16:32:40.626Z,17.64
2017-10-02T16:34:42.054Z,17.55
2017-10-02T16:36:43.485Z,17.53
2017-10-02T16:38:44.905Z,17.62
2017-10-02T16:40:46.325Z,17.50
2017-10-02T16:42:47.760Z,17.63
2017-10-02T16:44:49.170Z,17.57
2017-10-02T16:46:50.587Z,17.57
2017-10-02T16:48:52.100Z,17.47
2017-10-02T16:50:53.694Z,17.33
2017-10-02T16:52:55.126Z,17.35
2017-10-02T16:54:56.535Z,17.26
2017-10-02T16:56:57.968Z,17.22
2017-10-02T16:58:59.385Z,17.22
2017-10-02T17:01:00.879Z,17.25
2017-10-02T17:03:02.292Z,17.13
2017-10-02T17:05:03.775Z,17.11
2017-10-02T17:07:05.338Z,17.10
2017-10-02T17:09:06.863Z,17.11
2017-10-02T17:11:08.458Z,17.14
2017-10-02T17:13:50.873Z,17.20
2017-10-02T17:15:52.302Z,17.08
2017-10-02T17:17:53.720Z,17.00
2017-10-02T17:19:55.189Z,17.00
2017-10-02T17:21:56.589Z,16.95
2017-10-02T17:23:58.015Z,16.92
2017-10-02T17:25:59.436Z,16.89
2017-10-02T17:28:00.850Z,16.96
2017-10-02T17:30:02.283Z,16.92
2017-10-02T17:32:03.699Z,16.98
2017-10-02T17:34:05.116Z,16.90
2017-10-02T17:36:06.542Z,16.96
2017-10-02T17:38:07.997Z,16.89
2017-10-02T17:40:09.413Z,16.89
2017-10-02T17:42:10.833Z,16.95
2017-10-02T17:44:12.262Z,16.95
2017-10-02T17:46:13.703Z,16.93
2017-10-02T17:48:15.313Z,16.86
2017-10-02T17:50:16.785Z,16.78
2017-10-02T17:52:18.218Z,16.77
2017-10-02T17:54:19.704Z,16.56
2017-10-02T17:56:21.174Z,16.63
2017-10-02T17:58:22.647Z,16.77
2017-10-02T18:00:24.133Z,16.85
2017-10-02T18:02:25.622Z,16.88
2017-10-02T18:04:27.142Z,16.90
2017-10-02T18:06:29.015Z,16.75
2017-10-02T18:08:30.595Z,16.85
2017-10-02T18:10:32.057Z,16.83
2017-10-02T18:12:33.548Z,16.85
2017-10-02T18:14:35.030Z,16.73
2017-10-02T18:17:18.121Z,16.85
2017-10-02T18:19:19.526Z,16.77
2017-10-02T18:21:20.936Z,16.67
2017-10-02T18:23:22.357Z,16.65
2017-10-02T18:25:23.769Z,16.62
2017-10-02T18:27:25.193Z,16.62
2017-10-02T18:29:26.617Z,16.60
2017-10-02T18:31:28.310Z,16.63
2017-10-02T18:33:30.048Z,16.65
2017-10-02T18:35:31.284Z,16.52
2017-10-02T18:37:32.714Z,16.58
2017-10-02T18:39:34.135Z,16.55
2017-10-02T18:41:35.551Z,16.38
2017-10-02T18:43:36.976Z,16.42
2017-10-02T18:45:38.474Z,16.41
2017-10-02T18:47:39.977Z,16.38
2017-10-02T18:49:41.553Z,16.41
2017-10-02T18:51:43.007Z,16.27
2017-10-02T18:53:44.521Z,16.37
2017-10-02T18:55:46.035Z,16.22
2017-10-02T18:57:47.553Z,16.25
2017-10-02T18:59:49.101Z,16.27
2017-10-02T19:01:50.647Z,16.20
2017-10-02T19:04:33.800Z,16.18
2017-10-02T19:06:35.372Z,16.26
2017-10-02T19:08:36.787Z,16.48
2017-10-02T19:10:38.359Z,16.45
2017-10-02T19:12:39.863Z,16.37
2017-10-02T19:14:41.333Z,16.31
2017-10-02T19:16:43.039Z,16.20
2017-10-02T19:18:44.785Z,16.26
2017-10-02T19:21:27.290Z,16.26
2017-10-02T19:23:28.706Z,16.42
2017-10-02T19:25:30.124Z,16.35
2017-10-02T19:27:32.073Z,16.35
2017-10-02T19:29:33.478Z,16.30
2017-10-02T19:31:35.061Z,16.22
2017-10-02T19:33:36.770Z,16.16
2017-10-02T19:35:38.194Z,16.25
2017-10-02T19:37:39.620Z,16.14
2017-10-02T19:39:41.058Z,16.22
2017-10-02T19:41:42.501Z,16.14
2017-10-02T19:43:44.090Z,16.18
2017-10-02T19:45:45.647Z,16.22
2017-10-02T19:47:47.120Z,16.22
2017-10-02T19:49:48.551Z,16.23
2017-10-02T19:51:49.968Z,16.04
2017-10-02T19:53:51.387Z,16.15
2017-10-02T19:55:52.807Z,16.14
2017-10-02T19:57:54.328Z,16.14
2017-10-02T19:59:55.751Z,16.14
2017-10-02T20:01:57.164Z,16.11
2017-10-02T20:03:58.599Z,16.14
2017-10-02T20:06:00.010Z,16.12
2017-10-02T20:08:43.408Z,16.04
2017-10-02T20:10:44.872Z,16.01
2017-10-02T20:12:46.409Z,16.14
2017-10-02T20:14:47.819Z,16.01
2017-10-02T20:16:49.232Z,15.94
2017-10-02T20:18:50.689Z,15.82
2017-10-02T20:20:52.132Z,15.70
2017-10-02T20:22:53.549Z,15.72
2017-10-02T20:24:54.963Z,15.89
2017-10-02T20:26:56.385Z,15.92
2017-10-02T20:28:57.807Z,15.93
2017-10-02T20:30:59.223Z,15.89
2017-10-02T20:33:00.654Z,15.94
2017-10-02T20:35:02.092Z,16.03
2017-10-02T20:37:03.518Z,15.97
2017-10-02T20:39:45.899Z,16.00
2017-10-02T20:41:47.323Z,15.88
2017-10-02T20:43:48.742Z,15.79
2017-10-02T20:45:50.867Z,15.72
2017-10-02T20:47:52.546Z,15.66
2017-10-02T20:49:53.959Z,15.75
2017-10-02T20:51:55.482Z,15.78
2017-10-02T20:53:56.965Z,15.70
2017-10-02T20:55:58.466Z,15.74
2017-10-02T20:57:59.947Z,15.72
2017-10-02T21:00:01.427Z,15.70
2017-10-02T21:02:02.907Z,15.78
2017-10-02T21:04:04.467Z,15.66
2017-10-02T21:06:05.962Z,15.63
2017-10-02T21:08:07.530Z,15.49
2017-10-02T21:10:09.004Z,15.74
2017-10-02T21:12:10.593Z,15.64
2017-10-02T21:14:12.133Z,15.60
2017-10-02T21:16:13.624Z,15.79
2017-10-02T21:18:15.051Z,15.68
2017-10-02T21:20:16.486Z,15.75
2017-10-02T21:22:17.903Z,15.81
2017-10-02T21:24:19.322Z,15.75
2017-10-02T21:27:01.728Z,15.68
2017-10-02T21:29:03.145Z,15.74
2017-10-02T21:31:04.563Z,15.76
2017-10-02T21:33:05.989Z,15.76
2017-10-02T21:35:07.408Z,15.67
2017-10-02T21:37:09.102Z,15.74
2017-10-02T21:39:10.530Z,15.64
2017-10-02T21:41:11.938Z,15.64
2017-10-02T21:43:13.415Z,15.61
2017-10-02T21:45:14.839Z,15.63
2017-10-02T21:47:16.252Z,15.75
2017-10-02T21:49:17.669Z,15.64
2017-10-02T21:51:19.133Z,15.68
2017-10-02T21:53:20.560Z,15.46
2017-10-02T21:55:21.971Z,15.61
2017-10-02T21:58:04.373Z,15.46
2017-10-02T22:00:05.804Z,15.57
2017-10-02T22:02:07.219Z,15.61
2017-10-02T22:04:08.632Z,15.61
2017-10-02T22:06:10.487Z,15.60
2017-10-02T22:08:11.902Z,15.63
2017-10-02T22:10:13.439Z,15.57
2017-10-02T22:12:14.858Z,15.59
2017-10-02T22:14:58.161Z,15.67
2017-10-02T22:16:59.563Z,15.63
2017-10-02T22:19:00.982Z,15.52
2017-10-02T22:21:02.404Z,15.59
2017-10-02T22:23:03.825Z,15.52
2017-10-02T22:25:05.423Z,15.49
2017-10-02T22:27:06.840Z,15.54
2017-10-02T22:29:08.298Z,15.64
2017-10-02T22:31:09.725Z,15.54
2017-10-02T22:33:11.153Z,15.63
2017-10-02T22:35:12.611Z,15.75
2017-10-02T22:37:14.032Z,15.66
2017-10-02T22:39:15.456Z,15.59
2017-10-02T22:41:16.876Z,15.56
2017-10-02T22:43:18.376Z,15.48
2017-10-02T22:45:19.865Z,15.46
2017-10-02T22:47:21.446Z,15.48
2017-10-02T22:49:23.089Z,15.51
2017-10-02T22:51:24.534Z,15.70
2017-10-02T22:53:25.984Z,15.67
2017-10-02T22:55:27.547Z,15.57
2017-10-02T22:57:29.034Z,15.57
2017-10-02T22:59:30.494Z,15.48
2017-10-02T23:01:31.998Z,15.49
2017-10-02T23:03:33.481Z,15.38
2017-10-02T23:05:35.034Z,15.46
2017-10-02T23:07:36.657Z,15.36
2017-10-02T23:09:38.121Z,15.36
2017-10-02T23:11:39.604Z,15.31
2017-10-02T23:13:41.034Z,15.41
2017-10-02T23:15:42.507Z,15.30
2017-10-02T23:17:43.996Z,15.41
2017-10-02T23:19:45.464Z,15.26
2017-10-02T23:21:46.950Z,15.31
2017-10-02T23:23:48.499Z,15.41
2017-10-02T23:25:49.987Z,15.31
2017-10-02T23:27:51.580Z,15.21
2017-10-02T23:29:53.158Z,15.21
2017-10-02T23:31:54.717Z,15.13
2017-10-02T23:33:56.193Z,15.12
2017-10-02T23:35:57.681Z,15.09
2017-10-02T23:37:59.123Z,15.06
2017-10-02T23:40:00.861Z,15.09
2017-10-02T23:42:02.844Z,15.13
2017-10-02T23:44:04.420Z,15.03
2017-10-02T23:46:06.025Z,14.98
2017-10-02T23:48:49.557Z,14.94
2017-10-02T23:50:51.125Z,15.01
2017-10-02T23:52:52.565Z,14.93
2017-10-02T23:54:54.029Z,14.98
2017-10-02T23:56:55.461Z,14.86
2017-10-02T23:58:56.880Z,14.91
